createdAt,value
2017-11-09T00:02:10.718Z,36.72
2017-11-09T00:04:44.707Z,38.04
2017-11-09T00:07:12.987Z,40.32
2017-11-09T00:09:41.240Z,39.42
2017-11-09T00:12:09.545Z,38.40
2017-11-09T00:14:37.795Z,36.20
2017-11-09T00:17:06.060Z,41.24
2017-11-09T00:19:34.578Z,38.82
2017-11-09T00:22:03.798Z,42.88
2017-11-09T00:24:32.070Z,37.68
2017-11-09T00:27:00.323Z,37.96
2017-11-09T00:29:28.624Z,41.48
2017-11-09T00:31:56.888Z,37.84
2017-11-09T00:34:25.148Z,39.58
2017-11-09T00:36:53.438Z,39.58
2017-11-09T00:39:21.696Z,37.52
2017-11-09T00:41:51.091Z,37.38
2017-11-09T00:44:20.644Z,42.34
2017-11-09T00:46:48.905Z,39.66
2017-11-09T00:49:17.148Z,41.40
2017-11-09T00:51:45.445Z,40.60
2017-11-09T00:54:13.700Z,39.00
2017-11-09T00:56:41.952Z,40.82
2017-11-09T00:59:10.232Z,41.02
2017-11-09T01:01:38.508Z,35.90
2017-11-09T01:04:06.794Z,40.06
2017-11-09T01:06:35.084Z,36.94
2017-11-09T01:09:03.354Z,39.14
2017-11-09T01:11:31.635Z,42.00
2017-11-09T01:13:59.897Z,39.56
2017-11-09T01:16:28.167Z,41.56
2017-11-09T01:18:56.473Z,38.40
2017-11-09T01:21:24.732Z,40.40
2017-11-09T01:23:52.982Z,39.84
2017-11-09T01:26:21.277Z,38.30
2017-11-09T01:28:51.601Z,37.86
2017-11-09T01:31:21.824Z,41.88
2017-11-09T01:33:51.090Z,42.52
2017-11-09T01:36:20.644Z,43.66
2017-11-09T01:38:48.892Z,40.26
2017-11-09T01:41:17.188Z,39.12
2017-11-09T01:43:45.443Z,41.76
2017-11-09T01:46:13.703Z,38.68
2017-11-09T01:48:41.980Z,40.78
2017-11-09T01:51:10.268Z,39.12
2017-11-09T01:53:38.528Z,39.60
2017-11-09T01:56:06.780Z,38.94
2017-11-09T01:58:35.051Z,41.50
2017-11-09T02:01:03.337Z,40.72
2017-11-09T02:03:31.587Z,39.24
2017-11-09T02:05:59.872Z,38.92
2017-11-09T02:08:28.143Z,40.70
2017-11-09T02:10:56.392Z,44.38
2017-11-09T02:13:24.673Z,39.94
2017-11-09T02:15:52.920Z,41.32
2017-11-09T02:18:27.416Z,42.68
2017-11-09T02:20:55.711Z,39.90
2017-11-09T02:23:23.981Z,41.94
2017-11-09T02:25:51.468Z,41.84
2017-11-09T02:28:20.965Z,38.90
2017-11-09T02:30:50.126Z,39.66
2017-11-09T02:33:19.261Z,39.06
2017-11-09T02:35:47.564Z,42.94
2017-11-09T02:38:15.824Z,37.60
2017-11-09T02:40:44.108Z,39.90
2017-11-09T02:43:12.361Z,40.14
2017-11-09T02:45:40.656Z,41.14
2017-11-09T02:48:08.923Z,43.70
2017-11-09T02:50:37.184Z,39.18
2017-11-09T02:55:58.625Z,41.32
2017-11-09T02:58:26.921Z,43.42
2017-11-09T03:00:55.181Z,41.82
2017-11-09T03:03:23.468Z,44.60
2017-11-09T03:06:01.179Z,42.90
2017-11-09T03:08:29.466Z,46.76
2017-11-09T03:10:57.752Z,46.88
2017-11-09T03:13:26.033Z,43.74
2017-11-09T03:15:57.729Z,42.28
2017-11-09T03:18:26.016Z,43.30
2017-11-09T03:20:54.291Z,45.28
2017-11-09T03:23:22.589Z,45.28
2017-11-09T03:26:00.876Z,40.92
2017-11-09T03:28:29.165Z,39.74
2017-11-09T03:31:01.296Z,42.92
2017-11-09T03:33:29.592Z,43.92
2017-11-09T03:36:06.159Z,43.00
2017-11-09T03:38:34.444Z,45.68
2017-11-09T03:41:22.105Z,44.84
2017-11-09T03:43:51.024Z,41.46
2017-11-09T03:46:21.608Z,42.72
2017-11-09T03:48:51.603Z,46.58
2017-11-09T03:54:14.564Z,45.68
2017-11-09T03:56:42.819Z,49.52
2017-11-09T03:59:31.553Z,43.30
2017-11-09T04:01:59.817Z,42.46
2017-11-09T04:04:38.275Z,44.46
2017-11-09T04:07:06.540Z,47.18
2017-11-09T04:09:36.807Z,46.10
2017-11-09T04:12:05.095Z,44.18
2017-11-09T04:14:34.316Z,41.82
2017-11-09T04:17:02.603Z,43.62
2017-11-09T04:19:31.864Z,43.40
2017-11-09T04:22:00.120Z,43.60
2017-11-09T04:24:28.400Z,41.50
2017-11-09T04:26:56.655Z,41.90
2017-11-09T04:29:24.941Z,41.58
2017-11-09T04:31:53.197Z,39.64
2017-11-09T04:37:19.617Z,39.94
2017-11-09T04:39:48.550Z,40.68
2017-11-09T04:42:16.807Z,41.58
2017-11-09T04:44:45.055Z,41.16
2017-11-09T04:47:20.501Z,36.20
2017-11-09T04:49:50.554Z,41.18
2017-11-09T04:52:20.612Z,40.66
2017-11-09T04:54:49.812Z,39.24
2017-11-09T04:57:24.096Z,39.14
2017-11-09T04:59:52.359Z,40.16
2017-11-09T05:02:21.744Z,40.28
2017-11-09T05:04:51.427Z,36.84
2017-11-09T05:07:21.728Z,36.16
2017-11-09T05:09:51.398Z,39.04
2017-11-09T05:12:21.614Z,39.38
2017-11-09T05:14:51.162Z,39.78
2017-11-09T05:17:29.263Z,40.58
2017-11-09T05:19:57.552Z,41.04
2017-11-09T05:22:30.644Z,42.20
2017-11-09T05:24:58.884Z,40.34
2017-11-09T05:27:31.903Z,39.90
2017-11-09T05:30:00.164Z,41.60
2017-11-09T05:32:28.417Z,39.08
2017-11-09T05:34:56.708Z,41.08
2017-11-09T05:37:24.963Z,41.18
2017-11-09T05:40:00.507Z,41.94
2017-11-09T05:42:28.786Z,46.00
2017-11-09T05:44:58.073Z,46.22
2017-11-09T05:47:26.367Z,43.66
2017-11-09T05:50:06.598Z,41.92
2017-11-09T05:52:34.884Z,42.96
2017-11-09T05:55:07.151Z,45.88
2017-11-09T05:57:35.435Z,45.06
2017-11-09T06:00:09.876Z,42.50
2017-11-09T06:02:38.160Z,46.04
2017-11-09T06:05:07.409Z,45.42
2017-11-09T06:07:35.691Z,45.44
2017-11-09T06:10:10.200Z,47.44
2017-11-09T06:12:38.463Z,40.30
2017-11-09T06:15:06.752Z,43.30
2017-11-09T06:17:35.018Z,41.54
2017-11-09T06:20:05.247Z,45.28
2017-11-09T06:22:33.509Z,46.06
2017-11-09T06:25:01.782Z,44.86
2017-11-09T06:27:30.156Z,46.44
2017-11-09T06:29:58.456Z,43.72
2017-11-09T06:32:26.748Z,43.86
2017-11-09T06:34:54.265Z,46.80
2017-11-09T06:37:21.783Z,44.74
2017-11-09T06:40:00.087Z,46.12
2017-11-09T06:42:28.373Z,42.82
2017-11-09T06:45:07.280Z,46.12
2017-11-09T06:47:35.559Z,40.96
2017-11-09T06:50:07.804Z,42.68
2017-11-09T06:52:36.065Z,44.26
2017-11-09T06:55:04.352Z,46.54
2017-11-09T06:57:32.636Z,44.72
2017-11-09T07:00:00.891Z,40.74
2017-11-09T07:02:29.168Z,40.52
2017-11-09T07:04:57.461Z,44.50
2017-11-09T07:07:25.711Z,45.44
2017-11-09T07:09:54.941Z,40.40
2017-11-09T07:12:23.232Z,41.34
2017-11-09T07:15:01.203Z,37.88
2017-11-09T07:17:29.492Z,41.18
2017-11-09T07:20:01.419Z,40.90
2017-11-09T07:22:29.672Z,37.22
2017-11-09T07:25:05.309Z,39.22
2017-11-09T07:27:33.596Z,41.68
2017-11-09T07:30:01.848Z,42.16
2017-11-09T07:32:30.127Z,38.96
2017-11-09T07:35:18.102Z,39.90
2017-11-09T07:37:45.622Z,41.40
2017-11-09T07:40:13.875Z,38.00
2017-11-09T07:42:42.159Z,42.02
2017-11-09T07:45:10.447Z,36.30
2017-11-09T07:47:38.709Z,39.98
2017-11-09T07:50:06.987Z,35.16
2017-11-09T07:52:35.278Z,38.66
2017-11-09T07:55:03.564Z,38.46
2017-11-09T07:57:31.834Z,39.04
2017-11-09T08:00:00.125Z,37.30
2017-11-09T08:02:28.376Z,36.70
2017-11-09T08:04:56.673Z,36.38
2017-11-09T08:07:24.924Z,38.62
2017-11-09T08:09:53.176Z,39.06
2017-11-09T08:12:27.460Z,37.12
2017-11-09T08:14:55.720Z,36.88
2017-11-09T08:17:23.971Z,39.46
2017-11-09T08:19:52.248Z,36.30
2017-11-09T08:22:21.601Z,34.80
2017-11-09T08:24:52.404Z,37.82
2017-11-09T08:27:25.166Z,37.16
2017-11-09T08:29:54.752Z,35.32
2017-11-09T08:32:23.228Z,38.68
2017-11-09T08:34:51.490Z,34.80
2017-11-09T08:37:20.991Z,35.38
2017-11-09T08:39:50.592Z,36.20
2017-11-09T08:42:19.781Z,37.34
2017-11-09T08:44:48.704Z,36.62
2017-11-09T08:47:16.991Z,38.70
2017-11-09T08:49:45.257Z,34.48
2017-11-09T08:52:13.512Z,36.08
2017-11-09T08:54:41.803Z,34.66
2017-11-09T08:57:10.091Z,35.70
2017-11-09T08:59:38.343Z,34.66
2017-11-09T09:02:06.644Z,37.68
2017-11-09T09:04:34.896Z,36.46
2017-11-09T09:07:03.149Z,37.88
2017-11-09T09:09:31.431Z,33.98
2017-11-09T09:11:59.680Z,37.84
2017-11-09T09:14:27.945Z,37.02
2017-11-09T09:16:56.230Z,32.46
2017-11-09T09:19:24.476Z,35.66
2017-11-09T09:21:53.184Z,37.68
2017-11-09T09:24:40.269Z,30.84
2017-11-09T09:27:11.138Z,35.22
2017-11-09T09:29:50.106Z,38.26
2017-11-09T09:32:19.397Z,34.08
2017-11-09T09:34:55.355Z,34.70
2017-11-09T09:40:15.472Z,34.10
2017-11-09T09:42:51.030Z,34.14
2017-11-09T09:45:20.421Z,36.82
2017-11-09T09:47:50.503Z,36.54
2017-11-09T09:50:20.564Z,34.88
2017-11-09T09:52:51.363Z,36.20
2017-11-09T09:55:20.885Z,35.90
2017-11-09T09:57:49.933Z,35.54
2017-11-09T10:00:18.632Z,36.54
2017-11-09T10:02:46.897Z,36.46
2017-11-09T10:05:15.147Z,35.74
2017-11-09T10:07:43.443Z,36.00
2017-11-09T10:10:11.699Z,37.68
2017-11-09T10:12:39.984Z,35.88
2017-11-09T10:15:08.239Z,39.44
2017-11-09T10:17:36.500Z,38.80
2017-11-09T10:20:04.788Z,39.70
2017-11-09T10:22:33.047Z,39.74
2017-11-09T10:25:01.319Z,37.52
2017-11-09T10:27:29.567Z,38.34
2017-11-09T10:30:00.185Z,37.36
2017-11-09T10:32:31.372Z,37.54
2017-11-09T10:34:59.669Z,37.02
2017-11-09T10:37:27.919Z,36.10
2017-11-09T10:39:56.181Z,39.30
2017-11-09T10:42:24.464Z,38.90
2017-11-09T10:44:52.719Z,38.12
2017-11-09T10:47:27.359Z,37.54
2017-11-09T10:49:55.612Z,39.26
2017-11-09T10:52:23.867Z,37.96
2017-11-09T10:54:51.387Z,39.18
2017-11-09T10:57:20.755Z,37.88
2017-11-09T10:59:49.984Z,39.60
2017-11-09T11:02:25.548Z,42.90
2017-11-09T11:04:53.833Z,34.90
2017-11-09T11:07:23.632Z,39.80
2017-11-09T11:09:52.293Z,38.76
2017-11-09T11:12:21.855Z,38.36
2017-11-09T11:14:51.712Z,41.58
2017-11-09T11:17:21.237Z,39.06
2017-11-09T11:19:50.616Z,40.72
2017-11-09T11:22:21.156Z,39.94
2017-11-09T11:24:50.642Z,43.44
2017-11-09T11:27:20.317Z,42.14
2017-11-09T11:29:48.648Z,37.12
2017-11-09T11:32:16.912Z,41.58
2017-11-09T11:34:45.225Z,40.22
2017-11-09T11:37:14.408Z,41.76
2017-11-09T11:39:42.655Z,40.42
2017-11-09T11:42:10.961Z,37.82
2017-11-09T11:44:39.216Z,39.98
2017-11-09T11:47:07.496Z,37.44
2017-11-09T11:49:35.757Z,38.80
2017-11-09T11:52:04.049Z,37.36
2017-11-09T11:54:32.309Z,38.54
2017-11-09T11:57:00.563Z,41.04
2017-11-09T11:59:28.851Z,37.20
2017-11-09T12:01:57.103Z,42.86
2017-11-09T12:04:25.396Z,40.54
2017-11-09T12:06:53.682Z,43.36
2017-11-09T12:09:21.947Z,38.36
2017-11-09T12:11:53.062Z,40.34
2017-11-09T12:14:21.322Z,42.46
2017-11-09T12:16:50.803Z,42.64
2017-11-09T12:19:19.384Z,46.08
2017-11-09T12:21:47.649Z,41.18
2017-11-09T12:24:15.917Z,39.42
2017-11-09T12:26:47.636Z,39.76
2017-11-09T12:29:15.896Z,38.78
2017-11-09T12:31:44.158Z,39.60
2017-11-09T12:34:12.448Z,39.22
2017-11-09T12:36:40.740Z,37.98
2017-11-09T12:39:09.028Z,37.74
2017-11-09T12:41:37.326Z,39.32
2017-11-09T12:44:05.615Z,39.28
2017-11-09T12:46:33.877Z,37.98
2017-11-09T12:49:02.155Z,38.80
2017-11-09T12:51:30.411Z,38.02
2017-11-09T12:53:58.701Z,38.60
2017-11-09T12:56:26.971Z,37.20
2017-11-09T12:58:55.257Z,38.16
2017-11-09T13:01:26.560Z,40.36
2017-11-09T13:03:54.844Z,37.94
2017-11-09T13:06:23.120Z,38.42
2017-11-09T13:08:51.412Z,38.92
2017-11-09T13:11:24.556Z,41.30
2017-11-09T13:13:52.803Z,40.74
2017-11-09T13:16:26.867Z,38.62
2017-11-09T13:18:55.120Z,40.96
2017-11-09T13:21:23.413Z,38.70
2017-11-09T13:23:51.673Z,40.30
2017-11-09T13:26:19.873Z,40.34
2017-11-09T13:28:48.219Z,38.86
2017-11-09T13:31:16.508Z,38.10
2017-11-09T13:33:45.572Z,39.90
2017-11-09T13:36:13.855Z,41.58
2017-11-09T13:38:42.140Z,39.94
2017-11-09T13:41:10.408Z,40.34
2017-11-09T13:43:38.696Z,38.58
2017-11-09T13:46:06.996Z,37.10
2017-11-09T13:48:35.251Z,38.70
2017-11-09T13:51:03.499Z,36.26
2017-11-09T13:53:32.690Z,36.98
2017-11-09T13:56:00.944Z,37.66
2017-11-09T13:58:29.241Z,38.94
2017-11-09T14:00:57.521Z,38.78
2017-11-09T14:03:25.829Z,36.38
2017-11-09T14:05:54.477Z,36.92
2017-11-09T14:08:23.085Z,39.38
2017-11-09T14:10:52.084Z,36.00
2017-11-09T14:13:21.688Z,37.46
2017-11-09T14:15:51.194Z,37.86
2017-11-09T14:18:20.483Z,39.44
2017-11-09T14:20:50.424Z,38.88
2017-11-09T14:23:18.721Z,38.64
2017-11-09T14:25:47.015Z,37.58
2017-11-09T14:28:15.274Z,40.18
2017-11-09T14:30:43.542Z,37.28
2017-11-09T14:33:11.836Z,39.14
2017-11-09T14:35:40.102Z,37.88
2017-11-09T14:38:08.360Z,40.68
2017-11-09T14:40:37.580Z,38.10
2017-11-09T14:43:05.866Z,36.76
2017-11-09T14:45:34.161Z,39.58
2017-11-09T14:48:02.431Z,42.54
2017-11-09T14:50:30.704Z,42.14
2017-11-09T14:52:58.983Z,36.30
2017-11-09T14:55:27.281Z,39.06
2017-11-09T14:57:55.539Z,38.86
2017-11-09T15:00:23.845Z,35.32
2017-11-09T15:02:51.372Z,37.14
2017-11-09T15:05:20.327Z,38.22
2017-11-09T15:07:49.496Z,37.74
2017-11-09T15:10:17.789Z,39.28
2017-11-09T15:12:46.068Z,37.86
2017-11-09T15:15:14.324Z,36.64
2017-11-09T15:17:42.608Z,38.00
2017-11-09T15:20:10.913Z,37.44
2017-11-09T15:22:39.176Z,36.62
2017-11-09T15:25:07.429Z,38.56
2017-11-09T15:27:35.716Z,39.56
2017-11-09T15:30:03.973Z,34.96
2017-11-09T15:32:34.195Z,38.00
2017-11-09T15:35:02.441Z,37.06
2017-11-09T15:37:30.727Z,39.40
2017-11-09T15:39:58.254Z,37.54
2017-11-09T15:42:26.499Z,37.24
2017-11-09T15:44:54.756Z,39.68
2017-11-09T15:47:23.043Z,37.78
2017-11-09T15:49:51.305Z,40.64
2017-11-09T15:52:20.568Z,37.80
2017-11-09T15:54:49.908Z,36.74
2017-11-09T15:57:18.829Z,37.36
2017-11-09T15:59:47.111Z,37.42
2017-11-09T16:02:15.415Z,38.12
2017-11-09T16:04:43.663Z,39.18
2017-11-09T16:07:17.724Z,39.78
2017-11-09T16:09:46.011Z,38.44
2017-11-09T16:12:14.294Z,37.44
2017-11-09T16:14:42.550Z,37.90
2017-11-09T16:17:10.842Z,39.68
2017-11-09T16:19:39.100Z,39.32
2017-11-09T16:22:07.384Z,38.40
2017-11-09T16:24:35.681Z,37.90
2017-11-09T16:27:03.940Z,37.30
2017-11-09T16:29:32.189Z,37.22
2017-11-09T16:32:00.469Z,40.08
2017-11-09T16:34:27.967Z,39.90
2017-11-09T16:36:56.258Z,38.34
2017-11-09T16:39:24.513Z,39.50
2017-11-09T16:41:52.816Z,38.22
2017-11-09T16:44:27.052Z,35.14
2017-11-09T16:46:55.347Z,35.98
2017-11-09T16:49:23.606Z,38.08
2017-11-09T16:51:51.851Z,39.02
2017-11-09T16:54:21.172Z,38.78
2017-11-09T16:56:50.808Z,36.54
2017-11-09T16:59:21.025Z,37.24
2017-11-09T17:01:49.281Z,34.60
2017-11-09T17:04:17.532Z,39.16
2017-11-09T17:06:45.814Z,37.26
2017-11-09T17:09:14.069Z,33.64
2017-11-09T17:11:42.364Z,32.04
2017-11-09T17:14:10.628Z,34.10
2017-11-09T17:16:38.883Z,34.52
2017-11-09T17:19:10.112Z,34.62
2017-11-09T17:21:38.360Z,33.54
2017-11-09T17:24:06.643Z,33.40
2017-11-09T17:26:34.929Z,35.58
2017-11-09T17:29:03.220Z,34.66
2017-11-09T17:31:31.500Z,34.84
2017-11-09T17:33:59.791Z,33.08
2017-11-09T17:36:28.051Z,34.54
2017-11-09T17:38:55.580Z,34.58
2017-11-09T17:41:23.841Z,36.18
2017-11-09T17:43:52.692Z,35.12
2017-11-09T17:46:21.836Z,35.32
2017-11-09T17:48:50.975Z,33.50
2017-11-09T17:51:20.356Z,33.22
2017-11-09T17:53:49.256Z,34.84
2017-11-09T17:56:17.556Z,32.92
2017-11-09T17:58:45.824Z,34.58
2017-11-09T18:01:14.112Z,35.28
2017-11-09T18:03:42.374Z,35.16
2017-11-09T18:06:10.659Z,31.68
2017-11-09T18:08:38.918Z,34.26
2017-11-09T18:11:07.201Z,34.30
2017-11-09T18:13:35.461Z,36.58
2017-11-09T18:16:03.742Z,33.40
2017-11-09T18:18:31.994Z,34.70
2017-11-09T18:21:00.292Z,34.50
2017-11-09T18:23:28.543Z,32.28
2017-11-09T18:25:56.800Z,32.32
2017-11-09T18:28:25.092Z,34.08
2017-11-09T18:30:53.376Z,33.68
2017-11-09T18:33:21.724Z,34.84
2017-11-09T18:35:50.770Z,32.50
2017-11-09T18:38:20.109Z,30.64
2017-11-09T18:40:48.798Z,32.20
2017-11-09T18:43:17.080Z,30.10
2017-11-09T18:45:45.327Z,34.36
2017-11-09T18:48:13.611Z,31.86
2017-11-09T18:50:41.872Z,31.30
2017-11-09T18:53:09.399Z,31.78
2017-11-09T18:55:37.656Z,33.20
2017-11-09T18:58:05.166Z,32.50
2017-11-09T19:00:41.205Z,31.76
2017-11-09T19:03:09.455Z,31.38
2017-11-09T19:05:37.749Z,30.90
2017-11-09T19:08:06.018Z,34.22
2017-11-09T19:10:34.312Z,37.26
2017-11-09T19:13:02.565Z,38.02
2017-11-09T19:15:30.893Z,34.70
2017-11-09T19:18:17.973Z,35.46
2017-11-09T19:20:46.268Z,34.94
2017-11-09T19:23:14.515Z,34.66
2017-11-09T19:25:42.824Z,37.48
2017-11-09T19:28:11.093Z,35.82
2017-11-09T19:30:39.364Z,36.86
2017-11-09T19:33:07.663Z,34.92
2017-11-09T19:35:35.923Z,34.64
2017-11-09T19:38:03.448Z,34.10
2017-11-09T19:40:31.719Z,38.00
2017-11-09T19:43:00.061Z,34.20
2017-11-09T19:45:28.336Z,36.08
2017-11-09T19:47:56.636Z,34.84
2017-11-09T19:50:24.933Z,37.46
2017-11-09T19:52:53.212Z,35.00
2017-11-09T19:55:21.468Z,39.56
2017-11-09T19:57:50.947Z,37.38
2017-11-09T20:00:22.797Z,36.32
2017-11-09T20:02:51.607Z,36.68
2017-11-09T20:05:20.668Z,38.98
2017-11-09T20:07:50.382Z,37.72
2017-11-09T20:10:20.168Z,37.64
2017-11-09T20:12:48.846Z,35.48
2017-11-09T20:15:17.096Z,37.24
2017-11-09T20:17:52.292Z,37.02
2017-11-09T20:20:21.873Z,37.80
2017-11-09T20:22:51.027Z,38.14
2017-11-09T20:25:19.701Z,35.08
2017-11-09T20:27:48.005Z,37.12
2017-11-09T20:30:16.300Z,39.70
2017-11-09T20:32:44.659Z,37.00
2017-11-09T20:35:13.153Z,38.04
2017-11-09T20:37:41.440Z,36.76
2017-11-09T20:40:09.742Z,34.88
2017-11-09T20:42:37.997Z,38.32
2017-11-09T20:45:06.286Z,35.14
2017-11-09T20:47:34.580Z,34.90
2017-11-09T20:50:02.853Z,37.22
2017-11-09T20:52:31.147Z,37.56
2017-11-09T20:54:58.627Z,35.54
2017-11-09T20:57:26.878Z,33.58
2017-11-09T20:59:55.164Z,36.50
2017-11-09T21:02:26.031Z,37.04
2017-11-09T21:04:53.553Z,38.26
2017-11-09T21:07:21.821Z,34.58
2017-11-09T21:09:50.990Z,35.90
2017-11-09T21:12:19.780Z,36.00
2017-11-09T21:14:49.630Z,33.66
2017-11-09T21:17:17.883Z,33.84
2017-11-09T21:19:46.133Z,33.94
2017-11-09T21:22:14.415Z,32.90
2017-11-09T21:24:42.668Z,33.10
2017-11-09T21:27:10.971Z,35.50
2017-11-09T21:29:39.221Z,32.86
2017-11-09T21:32:07.504Z,35.22
2017-11-09T21:34:35.765Z,39.76
2017-11-09T21:37:04.052Z,31.24
2017-11-09T21:39:32.308Z,34.60
2017-11-09T21:42:00.586Z,36.70
2017-11-09T21:44:28.868Z,34.70
2017-11-09T21:46:57.133Z,37.38
2017-11-09T21:49:25.413Z,35.88
2017-11-09T21:51:53.685Z,33.20
2017-11-09T21:54:21.972Z,34.34
2017-11-09T21:56:52.580Z,36.84
2017-11-09T21:59:22.217Z,35.68
2017-11-09T22:01:54.259Z,35.48
2017-11-09T22:04:22.508Z,35.50
2017-11-09T22:06:52.799Z,35.96
2017-11-09T22:09:22.464Z,37.14
2017-11-09T22:11:51.856Z,32.84
2017-11-09T22:14:21.333Z,35.12
2017-11-09T22:16:50.671Z,36.36
2017-11-09T22:19:21.210Z,34.54
2017-11-09T22:21:50.452Z,34.26
2017-11-09T22:24:19.634Z,33.26
2017-11-09T22:26:47.928Z,33.70
2017-11-09T22:29:16.210Z,32.80
2017-11-09T22:31:44.487Z,32.44
2017-11-09T22:34:12.008Z,33.44
2017-11-09T22:36:40.303Z,30.88
2017-11-09T22:39:08.554Z,30.70
2017-11-09T22:41:36.799Z,28.98
2017-11-09T22:44:05.080Z,32.30
2017-11-09T22:46:33.331Z,30.34
2017-11-09T22:49:01.620Z,31.82
2017-11-09T22:51:29.871Z,30.64
2017-11-09T22:53:58.136Z,28.96
2017-11-09T22:56:26.463Z,26.18
2017-11-09T22:58:54.724Z,30.34
2017-11-09T23:01:23.009Z,27.14
2017-11-09T23:03:51.292Z,28.58
2017-11-09T23:06:20.884Z,31.50
2017-11-09T23:08:50.240Z,28.08
2017-11-09T23:11:19.962Z,25.46
2017-11-09T23:13:49.041Z,26.92
2017-11-09T23:16:17.412Z,26.28
2017-11-09T23:18:45.660Z,28.02
2017-11-09T23:21:13.923Z,27.14
2017-11-09T23:23:42.211Z,25.86
2017-11-09T23:26:10.468Z,26.14
2017-11-09T23:28:38.769Z,25.80
2017-11-09T23:31:07.028Z,28.10
2017-11-09T23:33:35.279Z,27.82
2017-11-09T23:36:03.559Z,25.34
2017-11-09T23:38:31.806Z,24.84
2017-11-09T23:41:00.088Z,27.84
2017-11-09T23:43:28.331Z,26.60
2017-11-09T23:45:56.613Z,26.52
2017-11-09T23:48:24.863Z,21.82
2017-11-09T23:50:53.139Z,23.84
2017-11-09T23:53:21.727Z,21.36
2017-11-09T23:55:50.731Z,21.12
2017-11-09T23:58:20.780Z,22.84
